EDDL

Düsseldorf International Airport

Düsseldorf, Germany
METAR EDDL 171150Z 22012KT 9999 -RA FEW010 BKN014 07/05 Q1018 NOSIG
Observed Flight Rules
Dec-17 @ 11:50 UTC (18 minutes ago) Marginal Visual Flight Rules
Wind Visibility Clouds Conditions
220° at 12 knots 10,000+ meters
  • Few at 1,000' AGL
  • Broken at 1,400' AGL
  • Light Rain
Temperatures Readings
Current 7°C / 45°F
Dewpoint 5°C / 41°F
Humidity 87%
Altimeter 30.06" Hg
Pressure 1018 hPa
Elevation 44
METAR EDDL 171150Z 22012KT 9999 -RA FEW010 BKN014 07/05 Q1018 NOSIG
Observed Flight Rules
Dec-17 @ 11:50 UTC
(18 minutes ago)
MVFR
Wind Visibility
220° at 12 knots 10,000+ meters
Clouds
  • Few at 1,000' AGL
  • Broken at 1,400' AGL
Conditions
  • Light Rain
Temperature Dewpoint
7°C / 45°F 5°C / 41°F
Humidity Altimeter Pressure
87% 30.06" Hg 1018 hPa